Time;durP1;ratioP1;P1;durP2;ratioP2;P2;SDS_P1;SDS_P2;PMS_P1;PMS_P2;Temp;Humidity;BMP_temperature;BMP_pressure;BME280_temperature;BME280_humidity;BME280_pressure;Samples;Min_cycle;Max_cycle;Signal;HPM_P1;HPM_P2
2022/03/29 00:02:19;;;;;;;35.30;16.93;;;8.00;79.80;;;;;;5063659;28;20484;-48
2022/03/29 00:04:46;;;;;;;45.30;17.30;;;7.90;80.00;;;;;;5064209;28;20471;-47
2022/03/29 00:07:13;;;;;;;41.87;19.07;;;7.90;80.60;;;;;;5061096;28;20534;-48
2022/03/29 00:09:39;;;;;;;40.37;18.30;;;7.90;81.10;;;;;;5064610;28;21163;-47
2022/03/29 00:12:06;;;;;;;39.53;18.70;;;7.70;80.80;;;;;;5061676;28;20494;-48
2022/03/29 00:14:33;;;;;;;32.23;18.13;;;7.50;81.60;;;;;;5063115;28;20488;-48
2022/03/29 00:17:01;;;;;;;29.33;17.67;;;7.40;82.20;;;;;;5063641;28;20491;-48
2022/03/29 00:19:29;;;;;;;33.63;18.23;;;7.20;83.30;;;;;;5063333;28;20801;-48
2022/03/29 00:21:56;;;;;;;32.50;18.90;;;7.10;84.00;;;;;;5062081;28;21120;-48
2022/03/29 00:24:22;;;;;;;31.03;19.50;;;6.90;84.40;;;;;;5060693;28;20477;-47
2022/03/29 00:26:49;;;;;;;35.03;18.73;;;6.90;84.30;;;;;;5063940;28;20469;-48
2022/03/29 00:29:16;;;;;;;38.67;19.70;;;7.10;83.60;;;;;;5063492;28;20481;-48
2022/03/29 00:31:42;;;;;;;31.17;17.27;;;7.20;83.10;;;;;;5062525;28;20975;-47
2022/03/29 00:34:10;;;;;;;34.63;16.97;;;7.40;82.30;;;;;;5058570;28;20839;-48
2022/03/29 00:36:37;;;;;;;37.50;19.17;;;7.50;82.30;;;;;;5064312;28;20482;-48
2022/03/29 00:39:04;;;;;;;30.57;18.27;;;7.50;82.90;;;;;;5062784;28;20552;-47
2022/03/29 00:41:31;;;;;;;42.40;20.60;;;7.60;82.60;;;;;;5058431;28;20480;-47
2022/03/29 00:43:59;;;;;;;28.73;17.30;;;7.70;81.50;;;;;;5065285;28;20556;-47
2022/03/29 00:46:25;;;;;;;28.03;17.03;;;7.80;80.80;;;;;;5069835;28;21015;-47
2022/03/29 00:48:52;;;;;;;30.20;16.13;;;7.90;80.40;;;;;;5062763;28;20517;-47
2022/03/29 00:51:20;;;;;;;31.33;17.20;;;7.80;80.40;;;;;;5062348;28;20896;-47
2022/03/29 00:53:47;;;;;;;27.73;15.60;;;7.70;81.00;;;;;;5062173;28;20962;-47
2022/03/29 00:56:14;;;;;;;36.23;16.77;;;7.50;82.10;;;;;;5061835;28;20489;-48
2022/03/29 00:58:41;;;;;;;26.67;16.90;;;7.60;81.70;;;;;;5062742;28;20485;-47
2022/03/29 01:01:09;;;;;;;27.60;16.27;;;7.60;81.30;;;;;;5059781;28;20883;-48
2022/03/29 01:03:36;;;;;;;35.97;16.27;;;7.60;81.10;;;;;;5059535;28;20491;-47
2022/03/29 01:06:03;;;;;;;25.53;16.40;;;7.60;81.40;;;;;;5068323;28;21010;-48
2022/03/29 01:08:31;;;;;;;31.20;18.10;;;7.40;82.30;;;;;;5063264;28;20480;-49
2022/03/29 01:10:59;;;;;;;47.63;17.10;;;7.50;81.70;;;;;;5062760;28;20481;-48
2022/03/29 01:13:26;;;;;;;27.37;16.60;;;7.50;81.20;;;;;;5061693;28;20471;-49
2022/03/29 01:15:52;;;;;;;27.73;16.57;;;7.50;81.10;;;;;;5061741;28;20857;-48
2022/03/29 01:18:20;;;;;;;37.13;17.80;;;7.40;81.80;;;;;;5060160;28;21285;-48
2022/03/29 01:20:50;;;;;;;28.80;18.30;;;7.30;82.70;;;;;;5062604;28;20488;-48
2022/03/29 01:23:19;;;;;;;29.60;18.97;;;7.10;83.80;;;;;;5059319;28;20910;-48
2022/03/29 01:25:47;;;;;;;36.20;18.63;;;7.20;83.40;;;;;;5060461;28;20484;-48
2022/03/29 01:28:16;;;;;;;34.97;17.33;;;7.20;82.50;;;;;;5061868;28;20488;-48
2022/03/29 01:30:43;;;;;;;29.67;17.67;;;7.20;83.10;;;;;;5059210;28;20986;-48
2022/03/29 01:33:11;;;;;;;29.90;16.50;;;7.00;83.90;;;;;;5062660;28;20492;-48
2022/03/29 01:35:39;;;;;;;29.97;19.50;;;7.00;83.90;;;;;;5066035;28;20477;-48
2022/03/29 01:38:06;;;;;;;28.07;17.80;;;7.10;83.20;;;;;;5055969;28;20575;-48
2022/03/29 01:40:35;;;;;;;38.73;20.03;;;7.10;83.20;;;;;;5066486;28;20484;-48
2022/03/29 01:43:03;;;;;;;32.30;19.00;;;7.20;82.60;;;;;;5063699;28;20481;-48
2022/03/29 01:45:31;;;;;;;47.33;17.87;;;7.30;81.90;;;;;;5061767;28;20480;-49
2022/03/29 01:47:58;;;;;;;26.47;16.70;;;7.30;81.30;;;;;;5063109;28;20485;-49
2022/03/29 01:50:25;;;;;;;26.97;15.33;;;7.40;80.80;;;;;;5062628;28;20488;-48
2022/03/29 01:52:52;;;;;;;30.90;16.03;;;7.40;80.10;;;;;;5063321;28;20479;-48
2022/03/29 01:55:21;;;;;;;29.17;15.97;;;7.40;80.10;;;;;;5060706;28;20488;-48
2022/03/29 01:57:50;;;;;;;33.90;16.67;;;7.40;80.40;;;;;;5062773;28;20480;-48
2022/03/29 02:00:34;;;;;;;36.37;17.17;;;7.40;80.10;;;;;;5061756;28;20477;-49
2022/03/29 02:03:03;;;;;;;27.60;16.07;;;7.50;80.60;;;;;;5051284;28;20550;-48
2022/03/29 02:05:31;;;;;;;39.77;16.50;;;7.50;80.30;;;;;;5059015;28;20575;-48
2022/03/29 02:07:58;;;;;;;30.07;18.20;;;7.50;80.40;;;;;;5059305;28;20962;-48
2022/03/29 02:10:25;;;;;;;26.77;16.50;;;7.50;80.60;;;;;;5033419;28;20559;-48
2022/03/29 02:12:54;;;;;;;31.53;17.87;;;7.50;80.50;;;;;;5061648;28;20485;-48
2022/03/29 02:15:21;;;;;;;26.17;16.93;;;7.50;80.90;;;;;;5059233;28;20479;-48
2022/03/29 02:17:48;;;;;;;31.67;17.13;;;7.50;80.50;;;;;;5062434;28;20500;-48
2022/03/29 02:20:15;;;;;;;32.33;17.23;;;7.50;80.50;;;;;;5059288;28;20824;-48
2022/03/29 02:22:42;;;;;;;31.53;16.37;;;7.50;80.30;;;;;;5059980;28;20477;-48
2022/03/29 02:25:10;;;;;;;26.93;16.13;;;7.50;80.30;;;;;;5060619;28;20496;-48
2022/03/29 02:27:38;;;;;;;35.67;17.87;;;7.40;80.50;;;;;;5062525;28;20556;-47
2022/03/29 02:30:07;;;;;;;24.10;16.73;;;7.40;80.60;;;;;;5061975;28;21075;-47
2022/03/29 02:32:34;;;;;;;32.60;17.70;;;7.40;80.60;;;;;;5062348;28;20489;-47
2022/03/29 02:35:01;;;;;;;28.87;16.67;;;7.40;80.30;;;;;;5059200;28;20492;-47
2022/03/29 02:37:28;;;;;;;34.67;17.50;;;7.40;80.00;;;;;;5062111;28;20471;-48
2022/03/29 02:39:55;;;;;;;29.30;18.50;;;7.40;80.40;;;;;;5047753;28;20477;-47
2022/03/29 02:42:21;;;;;;;34.80;18.20;;;7.40;80.40;;;;;;5056987;28;20476;-47
2022/03/29 02:44:48;;;;;;;32.33;18.80;;;7.30;80.90;;;;;;5059666;28;20485;-47
2022/03/29 02:47:16;;;;;;;28.07;16.80;;;7.10;82.10;;;;;;5048091;28;20492;-48
2022/03/29 02:49:43;;;;;;;27.13;15.20;;;6.90;82.70;;;;;;5061099;28;20579;-48
2022/03/29 02:52:10;;;;;;;20.33;14.53;;;6.90;82.20;;;;;;5060041;28;20546;-47
2022/03/29 02:54:37;;;;;;;25.53;15.50;;;6.90;81.90;;;;;;5058765;28;20565;-47
2022/03/29 02:57:05;;;;;;;25.97;15.90;;;6.80;82.20;;;;;;5063837;28;21022;-47
2022/03/29 02:59:31;;;;;;;31.40;17.50;;;6.80;82.40;;;;;;5069185;28;20565;-50
2022/03/29 03:01:58;;;;;;;27.20;17.10;;;6.80;82.40;;;;;;5065348;28;20477;-47
2022/03/29 03:04:26;;;;;;;32.50;15.83;;;6.90;82.00;;;;;;5063103;28;20483;-48
2022/03/29 03:06:53;;;;;;;29.83;17.00;;;6.90;81.80;;;;;;5059704;28;20757;-48
2022/03/29 03:09:19;;;;;;;28.93;18.23;;;6.80;82.20;;;;;;5064676;28;20490;-48
2022/03/29 03:11:46;;;;;;;33.97;19.90;;;6.70;84.30;;;;;;5063037;28;20485;-48
2022/03/29 03:14:13;;;;;;;32.47;18.00;;;6.60;84.80;;;;;;5063395;28;20983;-48
2022/03/29 03:16:39;;;;;;;36.60;18.97;;;6.70;84.60;;;;;;5065425;28;20868;-48
2022/03/29 03:19:06;;;;;;;35.13;19.83;;;6.80;83.80;;;;;;5064606;28;20995;-48
2022/03/29 03:21:34;;;;;;;35.37;19.57;;;6.70;84.00;;;;;;5066008;28;20492;-52
2022/03/29 03:24:01;;;;;;;33.23;18.47;;;6.70;84.20;;;;;;5062700;28;20913;-47
2022/03/29 03:26:27;;;;;;;44.27;20.77;;;6.70;83.90;;;;;;5051513;28;20483;-48
2022/03/29 03:28:54;;;;;;;34.70;18.33;;;6.80;83.40;;;;;;5064380;28;20473;-48
2022/03/29 03:31:21;;;;;;;31.03;19.33;;;6.90;82.90;;;;;;5064412;28;20482;-48
2022/03/29 03:33:47;;;;;;;47.40;18.77;;;7.00;82.00;;;;;;5064731;28;20511;-48
2022/03/29 03:36:14;;;;;;;28.90;17.00;;;7.00;81.50;;;;;;5061800;28;20948;-47
2022/03/29 03:38:42;;;;;;;27.20;16.27;;;7.00;81.60;;;;;;5068121;28;20541;-48
2022/03/29 03:41:09;;;;;;;33.10;16.60;;;7.10;80.90;;;;;;5060250;28;20480;-47
2022/03/29 03:43:35;;;;;;;29.60;17.00;;;7.10;81.20;;;;;;5064037;28;21137;-48
2022/03/29 03:46:02;;;;;;;30.30;16.80;;;7.10;81.50;;;;;;5065848;28;21015;-47
2022/03/29 03:48:29;;;;;;;32.80;16.90;;;7.00;81.40;;;;;;5065914;28;21024;-47
2022/03/29 03:50:55;;;;;;;28.90;17.97;;;6.90;81.50;;;;;;5070167;28;20474;-47
2022/03/29 03:53:22;;;;;;;29.33;16.60;;;6.90;81.60;;;;;;5062585;28;20491;-48
2022/03/29 03:55:50;;;;;;;33.60;17.40;;;6.90;81.20;;;;;;5064284;28;20482;-47
2022/03/29 03:58:17;;;;;;;36.27;18.20;;;6.80;81.60;;;;;;5062733;28;20471;-48
2022/03/29 04:00:43;;;;;;;28.10;16.87;;;6.80;81.90;;;;;;5064853;28;20485;-48
2022/03/29 04:03:10;;;;;;;33.00;17.03;;;6.80;81.40;;;;;;5062269;28;20490;-49
2022/03/29 04:05:38;;;;;;;29.97;17.03;;;6.80;81.60;;;;;;5063023;28;20477;-48
2022/03/29 04:08:05;;;;;;;32.30;17.33;;;6.80;81.90;;;;;;5063727;28;20548;-51
2022/03/29 04:10:33;;;;;;;35.20;17.80;;;6.80;81.80;;;;;;5064920;28;20831;-48
2022/03/29 04:13:02;;;;;;;27.10;16.70;;;6.80;81.80;;;;;;5063992;28;21015;-48
2022/03/29 04:15:29;;;;;;;26.17;16.53;;;6.80;81.80;;;;;;5062622;28;20535;-48
2022/03/29 04:17:56;;;;;;;33.50;17.07;;;6.80;81.30;;;;;;5062426;28;20476;-48
2022/03/29 04:20:23;;;;;;;27.47;16.70;;;6.80;81.20;;;;;;5064170;28;20540;-48
2022/03/29 04:22:49;;;;;;;23.10;16.30;;;6.80;80.90;;;;;;5064470;28;20504;-48
2022/03/29 04:25:16;;;;;;;26.87;16.70;;;6.80;80.80;;;;;;5062266;28;21057;-48
2022/03/29 04:27:44;;;;;;;25.63;16.47;;;6.80;81.20;;;;;;5051764;28;21061;-48
2022/03/29 04:30:13;;;;;;;27.40;15.67;;;6.70;81.20;;;;;;5063052;28;20476;-48
2022/03/29 04:32:39;;;;;;;31.13;16.93;;;6.60;81.80;;;;;;5063614;28;20487;-48
2022/03/29 04:35:06;;;;;;;31.37;17.50;;;6.60;83.00;;;;;;5061460;28;20804;-49
2022/03/29 04:37:34;;;;;;;33.67;17.57;;;6.50;82.90;;;;;;5064703;28;20496;-48
2022/03/29 04:40:00;;;;;;;31.13;19.13;;;6.40;83.10;;;;;;5067341;28;20609;-48
2022/03/29 04:42:27;;;;;;;29.23;17.00;;;6.30;84.00;;;;;;5070190;28;20961;-48
2022/03/29 04:44:54;;;;;;;23.60;15.40;;;6.20;83.70;;;;;;5063241;28;20990;-48
2022/03/29 04:47:22;;;;;;;34.30;18.90;;;6.20;83.10;;;;;;5063305;28;20490;-48
2022/03/29 04:49:49;;;;;;;30.33;18.33;;;6.20;82.80;;;;;;5063727;28;20492;-47
2022/03/29 04:52:16;;;;;;;24.90;16.80;;;6.20;82.90;;;;;;5062436;28;21037;-48
2022/03/29 04:54:43;;;;;;;28.90;16.50;;;6.10;83.10;;;;;;5062602;28;20481;-48
2022/03/29 04:57:09;;;;;;;28.03;16.50;;;6.10;83.70;;;;;;5058487;28;20856;-48
2022/03/29 04:59:36;;;;;;;30.73;18.30;;;5.90;85.20;;;;;;5063381;28;21237;-48
2022/03/29 05:02:03;;;;;;;29.40;16.57;;;5.80;85.90;;;;;;5062403;28;20587;-48
2022/03/29 05:04:31;;;;;;;33.30;18.10;;;5.80;86.20;;;;;;5052434;28;20506;-48
2022/03/29 05:06:58;;;;;;;32.30;17.07;;;5.90;85.70;;;;;;5048712;28;20899;-48
2022/03/29 05:09:25;;;;;;;30.17;17.23;;;6.00;85.20;;;;;;5064800;28;20484;-48
2022/03/29 05:11:51;;;;;;;27.27;17.00;;;6.10;84.80;;;;;;5066602;28;20483;-52
2022/03/29 05:14:18;;;;;;;31.63;16.60;;;6.20;83.90;;;;;;5060147;28;20487;-47
2022/03/29 05:16:45;;;;;;;29.40;18.20;;;6.30;83.40;;;;;;5063634;28;20495;-48
2022/03/29 05:19:11;;;;;;;24.37;16.10;;;6.30;82.80;;;;;;5060212;28;20573;-48
2022/03/29 05:21:40;;;;;;;29.13;17.93;;;6.40;82.00;;;;;;5062895;28;20479;-49
2022/03/29 05:24:07;;;;;;;26.20;16.30;;;6.20;82.50;;;;;;5060446;28;20489;-48
2022/03/29 05:26:34;;;;;;;24.50;14.90;;;6.20;83.00;;;;;;5062767;28;20491;-48
2022/03/29 05:29:02;;;;;;;24.53;15.73;;;6.00;83.10;;;;;;5063025;28;20625;-47
2022/03/29 05:31:29;;;;;;;25.53;16.43;;;5.90;83.90;;;;;;5062545;28;20568;-48
2022/03/29 05:33:55;;;;;;;23.40;15.07;;;5.80;84.70;;;;;;5067942;28;20959;-48
2022/03/29 05:36:22;;;;;;;36.97;17.77;;;5.70;85.70;;;;;;5051154;28;20983;-48
2022/03/29 05:38:51;;;;;;;25.37;15.70;;;5.80;85.90;;;;;;5045208;28;21052;-48
2022/03/29 05:41:19;;;;;;;50.90;25.17;;;5.90;85.20;;;;;;5055625;28;20861;-48
2022/03/29 05:43:47;;;;;;;53.87;31.07;;;6.00;84.60;;;;;;5061018;28;21228;-48
2022/03/29 05:48:59;;;;;;;73.43;34.80;;;6.30;84.30;;;;;;5061576;28;20555;-47
2022/03/29 05:51:28;;;;;;;38.50;23.10;;;6.30;84.20;;;;;;5061495;28;20498;-48
2022/03/29 05:53:57;;;;;;;27.50;16.03;;;6.30;83.50;;;;;;5058814;28;20816;-48
2022/03/29 05:56:25;;;;;;;58.60;19.17;;;5.70;84.50;;;;;;5060833;28;20487;-48
2022/03/29 05:58:52;;;;;;;25.03;16.03;;;5.50;85.70;;;;;;5061193;28;20498;-48
2022/03/29 06:01:19;;;;;;;27.73;15.83;;;5.50;86.20;;;;;;5059821;28;20496;-48
2022/03/29 06:03:46;;;;;;;32.10;16.37;;;5.70;86.20;;;;;;5061202;28;20555;-47
2022/03/29 06:06:14;;;;;;;29.60;17.50;;;5.80;86.20;;;;;;5057580;28;20975;-49
2022/03/29 06:08:40;;;;;;;30.03;16.30;;;5.80;86.60;;;;;;5063647;28;20549;-48
2022/03/29 06:11:09;;;;;;;36.43;17.87;;;6.00;86.20;;;;;;5057820;28;20495;-48
2022/03/29 06:13:36;;;;;;;29.07;16.90;;;6.10;86.10;;;;;;5056647;28;21302;-49
2022/03/29 06:16:03;;;;;;;42.40;20.60;;;6.30;85.90;;;;;;5062769;28;22551;-48
2022/03/29 06:18:30;;;;;;;53.47;18.20;;;6.30;86.60;;;;;;5063299;28;20583;-48
2022/03/29 06:20:58;;;;;;;29.57;17.77;;;6.40;86.50;;;;;;5056797;28;20490;-48
2022/03/29 06:23:24;;;;;;;24.73;15.73;;;6.50;86.30;;;;;;5056769;28;20895;-48
2022/03/29 06:25:51;;;;;;;41.70;16.97;;;6.60;85.80;;;;;;5060647;28;20485;-48
2022/03/29 06:28:19;;;;;;;25.87;17.33;;;6.70;85.30;;;;;;5061252;28;20507;-48
2022/03/29 06:30:47;;;;;;;30.00;17.00;;;6.80;85.30;;;;;;5056709;28;21910;-48
2022/03/29 06:33:14;;;;;;;38.13;19.03;;;6.90;85.20;;;;;;5059099;28;20534;-47
2022/03/29 06:35:40;;;;;;;41.00;19.27;;;6.80;85.70;;;;;;5022645;28;20486;-47
2022/03/29 06:38:08;;;;;;;27.40;16.53;;;6.80;86.70;;;;;;5041919;28;20772;-48
2022/03/29 06:40:36;;;;;;;39.93;20.60;;;7.00;86.50;;;;;;5046680;28;20492;-47
2022/03/29 06:43:03;;;;;;;22.13;16.60;;;7.00;86.70;;;;;;5052559;28;21420;-47
2022/03/29 06:45:31;;;;;;;30.57;18.90;;;7.20;86.50;;;;;;5041898;28;20481;-49
2022/03/29 06:47:58;;;;;;;37.83;19.20;;;7.30;86.60;;;;;;5067908;28;20485;-48
2022/03/29 06:50:26;;;;;;;36.10;19.13;;;7.40;86.20;;;;;;5066049;28;20485;-48
2022/03/29 06:52:52;;;;;;;32.83;17.83;;;7.60;86.30;;;;;;5057127;28;20564;-48
2022/03/29 06:55:19;;;;;;;34.30;17.33;;;7.80;85.90;;;;;;5041318;28;20577;-48
2022/03/29 06:57:46;;;;;;;28.80;17.53;;;7.90;86.40;;;;;;5061738;28;20471;-48
2022/03/29 07:00:14;;;;;;;29.20;17.33;;;7.90;86.60;;;;;;5064095;28;21417;-48
2022/03/29 07:02:42;;;;;;;37.23;18.47;;;8.00;86.70;;;;;;5067069;28;20480;-48
2022/03/29 07:05:10;;;;;;;31.13;17.87;;;8.20;87.00;;;;;;5061357;28;20507;-48
2022/03/29 07:07:37;;;;;;;35.80;20.20;;;8.20;87.50;;;;;;5065635;28;20523;-48
2022/03/29 07:12:50;;;;;;;33.90;19.47;;;8.60;86.60;;;;;;5046389;28;20500;-48
2022/03/29 07:15:17;;;;;;;48.93;21.20;;;8.80;86.50;;;;;;5061327;28;20471;-48
2022/03/29 07:17:46;;;;;;;38.77;19.10;;;9.00;85.70;;;;;;5068813;28;20492;-48
2022/03/29 07:20:15;;;;;;;46.17;20.67;;;9.20;85.90;;;;;;5065433;28;20479;-48
2022/03/29 07:22:43;;;;;;;39.47;21.27;;;9.40;84.80;;;;;;5037914;28;20476;-48
2022/03/29 07:25:11;;;;;;;32.13;20.00;;;9.60;83.90;;;;;;5058767;28;20468;-47
2022/03/29 07:27:37;;;;;;;32.17;19.00;;;9.80;83.70;;;;;;5067566;28;20527;-47
2022/03/29 07:30:06;;;;;;;28.67;18.13;;;10.00;82.70;;;;;;5065656;28;20592;-47
2022/03/29 07:32:32;;;;;;;38.53;19.97;;;10.40;82.30;;;;;;5064147;28;20704;-48
2022/03/29 07:35:00;;;;;;;22.60;17.67;;;10.70;82.30;;;;;;5061529;28;20485;-48
2022/03/29 07:37:27;;;;;;;28.77;16.20;;;11.00;81.70;;;;;;5040770;28;20828;-47
2022/03/29 07:39:54;;;;;;;26.10;18.33;;;11.20;81.40;;;;;;5064712;28;20515;-48
2022/03/29 07:42:22;;;;;;;25.73;19.20;;;11.60;80.30;;;;;;5064616;28;20475;-48
2022/03/29 07:44:49;;;;;;;29.80;19.13;;;11.80;79.80;;;;;;5067978;28;20481;-49
2022/03/29 07:47:17;;;;;;;28.60;18.57;;;11.90;80.70;;;;;;5070878;28;20571;-48
2022/03/29 07:49:44;;;;;;;32.53;18.77;;;12.00;80.40;;;;;;5067632;28;20482;-48
2022/03/29 07:52:13;;;;;;;31.27;17.83;;;12.20;80.30;;;;;;5070440;28;20997;-48
2022/03/29 07:54:39;;;;;;;38.37;21.17;;;12.30;78.90;;;;;;5068696;28;20485;-48
2022/03/29 07:57:08;;;;;;;25.73;17.63;;;12.50;76.70;;;;;;5070331;28;20938;-48
2022/03/29 07:59:37;;;;;;;28.97;18.43;;;12.50;78.10;;;;;;5066562;28;20483;-48
2022/03/29 08:02:04;;;;;;;31.07;19.53;;;12.60;78.30;;;;;;5057640;28;20486;-48
2022/03/29 08:04:31;;;;;;;28.00;18.53;;;12.60;77.50;;;;;;5055198;28;20488;-48
2022/03/29 08:06:58;;;;;;;31.07;18.73;;;12.60;78.50;;;;;;5068459;28;20492;-48
2022/03/29 08:09:26;;;;;;;34.93;21.07;;;12.50;79.50;;;;;;5066656;28;20492;-48
2022/03/29 08:11:55;;;;;;;30.67;19.13;;;12.60;78.20;;;;;;5070323;28;21336;-48
2022/03/29 08:14:21;;;;;;;25.53;18.90;;;12.50;78.70;;;;;;5068187;28;20657;-48
2022/03/29 08:16:48;;;;;;;30.20;19.83;;;12.70;78.80;;;;;;5069095;28;20902;-48
2022/03/29 08:19:15;;;;;;;49.63;21.00;;;12.70;78.10;;;;;;5070064;28;20474;-48
2022/03/29 08:21:51;;;;;;;32.33;21.10;;;12.90;77.90;;;;;;5067058;28;21026;-48
2022/03/29 08:24:18;;;;;;;29.60;18.03;;;13.10;78.60;;;;;;5062816;28;20567;-48
2022/03/29 08:26:47;;;;;;;37.13;19.90;;;13.20;77.90;;;;;;5066071;28;20504;-48
2022/03/29 08:29:15;;;;;;;34.67;19.53;;;13.20;77.60;;;;;;5065748;28;20566;-48
2022/03/29 08:31:42;;;;;;;29.73;19.87;;;13.30;77.90;;;;;;5062727;28;20453;-48
2022/03/29 08:34:09;;;;;;;27.50;18.97;;;13.40;78.30;;;;;;5041259;28;20924;-48
2022/03/29 08:36:38;;;;;;;28.40;18.70;;;13.60;78.90;;;;;;5067168;28;20527;-48
2022/03/29 08:39:05;;;;;;;23.53;17.57;;;13.80;78.00;;;;;;5070227;28;20487;-48
2022/03/29 08:41:36;;;;;;;32.63;19.30;;;13.80;78.50;;;;;;5067171;28;20482;-48
2022/03/29 08:44:06;;;;;;;36.40;20.93;;;13.90;78.90;;;;;;5066981;28;20479;-48
2022/03/29 08:46:35;;;;;;;48.80;20.07;;;14.00;77.90;;;;;;5070430;28;20725;-48
2022/03/29 08:49:03;;;;;;;26.97;18.60;;;14.00;76.90;;;;;;5043446;28;20924;-48
2022/03/29 08:51:30;;;;;;;28.10;18.90;;;14.20;78.30;;;;;;5065277;28;20484;-49
2022/03/29 08:53:57;;;;;;;32.13;20.27;;;14.30;78.70;;;;;;5066548;28;21063;-49
2022/03/29 08:56:24;;;;;;;40.13;25.27;;;14.40;78.20;;;;;;5067820;28;20484;-48
2022/03/29 08:58:51;;;;;;;34.70;23.30;;;14.60;79.10;;;;;;5069590;28;20928;-48
2022/03/29 09:01:20;;;;;;;39.70;22.67;;;14.80;78.50;;;;;;5067654;28;20487;-48
2022/03/29 09:04:02;;;;;;;30.20;20.60;;;14.90;78.10;;;;;;5067482;28;20461;-48
2022/03/29 09:06:29;;;;;;;44.07;24.10;;;15.10;77.50;;;;;;5058965;28;20577;-48
2022/03/29 09:08:56;;;;;;;32.40;22.30;;;15.20;76.80;;;;;;5065743;28;20481;-49
2022/03/29 09:11:22;;;;;;;40.83;22.93;;;15.30;76.00;;;;;;5066997;28;20529;-48
2022/03/29 09:14:02;;;;;;;37.67;21.47;;;15.50;76.00;;;;;;5066358;28;20479;-48
2022/03/29 09:16:32;;;;;;;29.33;20.50;;;15.60;75.70;;;;;;5067173;28;20946;-48
2022/03/29 09:18:59;;;;;;;35.93;21.23;;;15.70;74.30;;;;;;5056974;28;20482;-48
2022/03/29 09:21:27;;;;;;;30.53;22.33;;;15.80;73.90;;;;;;5045194;28;20910;-48
2022/03/29 09:24:09;;;;;;;31.63;20.43;;;15.90;73.90;;;;;;5065556;28;20489;-48
2022/03/29 09:26:38;;;;;;;31.47;20.80;;;16.00;74.50;;;;;;5032243;28;20509;-49
2022/03/29 09:29:13;;;;;;;28.03;19.70;;;16.00;72.10;;;;;;5051296;28;20890;-48
2022/03/29 09:31:42;;;;;;;37.27;21.37;;;16.00;69.70;;;;;;5065194;28;20476;-48
2022/03/29 09:34:17;;;;;;;31.70;20.73;;;15.90;69.90;;;;;;5057410;28;20499;-48
2022/03/29 09:36:46;;;;;;;28.97;20.30;;;15.90;69.40;;;;;;5039048;28;20688;-50
2022/03/29 09:39:36;;;;;;;33.17;20.13;;;16.10;70.90;;;;;;5063485;28;20565;-49
2022/03/29 09:42:06;;;;;;;30.90;18.43;;;16.30;71.00;;;;;;5065769;28;20733;-49
2022/03/29 09:44:39;;;;;;;33.63;20.20;;;16.30;69.00;;;;;;5066073;28;20489;-48
2022/03/29 09:47:08;;;;;;;47.70;19.77;;;16.30;64.30;;;;;;5065552;28;20570;-48
2022/03/29 09:49:53;;;;;;;30.83;16.30;;;16.30;63.40;;;;;;5054914;28;20805;-48
2022/03/29 09:52:21;;;;;;;22.20;16.23;;;16.20;65.60;;;;;;5066115;28;20482;-48
2022/03/29 09:55:13;;;;;;;39.90;16.80;;;16.10;60.70;;;;;;5065549;28;20482;-48
2022/03/29 09:57:41;;;;;;;21.37;13.93;;;16.10;60.20;;;;;;5057181;28;21002;-50
2022/03/29 10:00:11;;;;;;;30.40;15.30;;;16.10;59.50;;;;;;5056751;28;20484;-48
2022/03/29 10:02:44;;;;;;;22.53;15.80;;;16.20;58.60;;;;;;5038463;28;21001;-48
2022/03/29 10:05:11;;;;;;;22.93;15.30;;;16.20;58.80;;;;;;5048208;28;20483;-49
2022/03/29 10:07:44;;;;;;;19.43;14.40;;;16.30;59.40;;;;;;5047510;28;20497;-48
2022/03/29 10:10:12;;;;;;;23.27;17.20;;;16.30;56.80;;;;;;5050747;28;20470;-49
2022/03/29 10:12:39;;;;;;;41.13;17.00;;;16.50;56.70;;;;;;5063480;28;20844;-49
2022/03/29 10:15:07;;;;;;;25.17;14.33;;;16.70;56.00;;;;;;5063845;28;20484;-49
2022/03/29 10:17:34;;;;;;;21.67;15.80;;;16.80;57.20;;;;;;5064995;28;20477;-49
2022/03/29 10:20:06;;;;;;;28.60;17.90;;;17.00;58.00;;;;;;5049920;28;20480;-48
2022/03/29 10:22:35;;;;;;;23.27;15.77;;;17.10;57.60;;;;;;5066348;28;21051;-49
2022/03/29 10:25:01;;;;;;;17.03;14.00;;;17.20;55.90;;;;;;5061732;28;20482;-50
2022/03/29 10:27:29;;;;;;;33.83;16.13;;;17.30;57.50;;;;;;5065522;28;21085;-49
2022/03/29 10:29:56;;;;;;;25.47;18.03;;;17.50;57.00;;;;;;5065946;28;20516;-50
2022/03/29 10:32:31;;;;;;;28.40;18.10;;;17.50;57.10;;;;;;5063226;28;20485;-49
2022/03/29 10:35:10;;;;;;;25.60;15.60;;;17.50;56.80;;;;;;5059758;28;20543;-50
2022/03/29 10:37:53;;;;;;;24.43;15.60;;;17.70;55.90;;;;;;5065340;28;21169;-50
2022/03/29 10:40:36;;;;;;;23.03;15.50;;;17.80;55.80;;;;;;5064670;28;20636;-50
2022/03/29 10:43:29;;;;;;;21.27;14.63;;;18.00;56.20;;;;;;5063895;28;20470;-50
2022/03/29 10:45:57;;;;;;;23.27;16.10;;;18.00;56.90;;;;;;5047665;28;20479;-50
2022/03/29 10:48:24;;;;;;;29.03;15.87;;;18.00;58.70;;;;;;5064095;28;20691;-50
2022/03/29 10:50:58;;;;;;;21.50;16.30;;;18.10;56.60;;;;;;5067346;28;20478;-51
2022/03/29 10:53:26;;;;;;;21.37;15.23;;;18.20;56.00;;;;;;5064185;28;21009;-50
2022/03/29 10:56:19;;;;;;;22.50;15.03;;;18.20;55.20;;;;;;5067394;28;20527;-50
2022/03/29 10:59:11;;;;;;;25.03;15.73;;;18.20;54.30;;;;;;5037338;28;20473;-50
2022/03/29 11:01:39;;;;;;;25.70;15.40;;;18.20;54.10;;;;;;5064712;28;20495;-49
2022/03/29 11:04:08;;;;;;;44.20;17.87;;;18.50;56.30;;;;;;5063260;28;20867;-50
2022/03/29 11:06:36;;;;;;;20.30;14.67;;;18.40;56.50;;;;;;5065501;28;20888;-50
2022/03/29 11:09:05;;;;;;;21.10;14.97;;;18.60;56.20;;;;;;5065142;28;20479;-49
2022/03/29 11:11:39;;;;;;;41.53;23.50;;;18.80;55.10;;;;;;5066048;28;22446;-50
2022/03/29 11:14:40;;;;;;;25.27;15.33;;;18.80;55.50;;;;;;5064905;28;20485;-52
2022/03/29 11:17:36;;;;;;;20.87;15.27;;;19.00;55.40;;;;;;5057938;28;21061;-50
2022/03/29 11:20:34;;;;;;;24.70;15.77;;;19.00;53.70;;;;;;5069966;28;20944;-50
2022/03/29 11:23:04;;;;;;;26.80;15.87;;;19.00;54.00;;;;;;5069603;28;20508;-50
2022/03/29 11:25:38;;;;;;;18.57;14.23;;;19.10;53.40;;;;;;5068420;28;20492;-51
2022/03/29 11:28:09;;;;;;;24.13;16.00;;;19.20;53.20;;;;;;5070252;28;20548;-50
2022/03/29 11:30:36;;;;;;;20.23;16.03;;;19.10;51.80;;;;;;5070515;28;20982;-49
2022/03/29 11:33:04;;;;;;;23.30;16.07;;;19.20;54.70;;;;;;5067852;28;20523;-50
2022/03/29 11:35:32;;;;;;;22.80;15.60;;;19.30;52.90;;;;;;5066287;28;20482;-50
2022/03/29 11:38:09;;;;;;;22.57;15.60;;;19.40;53.40;;;;;;5068553;28;20496;-49
2022/03/29 11:40:36;;;;;;;24.27;16.17;;;19.30;52.00;;;;;;5069406;28;21805;-50
2022/03/29 11:43:05;;;;;;;29.17;15.80;;;19.40;52.40;;;;;;5069577;28;20980;-51
2022/03/29 11:45:39;;;;;;;26.53;17.93;;;19.40;53.10;;;;;;5068028;28;20896;-50
2022/03/29 11:48:11;;;;;;;34.73;17.63;;;19.50;53.10;;;;;;5070657;28;20517;-50
2022/03/29 11:50:40;;;;;;;23.00;16.00;;;19.50;53.20;;;;;;5067567;28;20632;-50
2022/03/29 11:53:18;;;;;;;20.97;15.53;;;;;;;;;;5070547;28;21001;-50
2022/03/29 11:55:52;;;;;;;34.13;16.37;;;19.70;52.70;;;;;;5067803;28;20833;-52
2022/03/29 11:58:23;;;;;;;30.67;16.87;;;19.60;51.70;;;;;;5065715;28;20486;-50
2022/03/29 12:00:50;;;;;;;30.97;16.60;;;19.70;53.80;;;;;;5067108;28;20474;-50
2022/03/29 12:03:27;;;;;;;25.90;17.00;;;19.70;53.40;;;;;;5067216;28;20489;-50
2022/03/29 12:06:03;;;;;;;24.57;14.97;;;19.60;52.60;;;;;;5069500;28;20474;-50
2022/03/29 12:08:54;;;;;;;23.63;15.90;;;19.70;53.50;;;;;;5062475;28;20482;-50
2022/03/29 12:11:24;;;;;;;29.60;16.70;;;19.50;51.70;;;;;;5069273;28;20478;-50
2022/03/29 12:14:01;;;;;;;22.53;16.93;;;19.60;52.50;;;;;;5065044;28;20485;-50
2022/03/29 12:16:29;;;;;;;20.63;14.90;;;19.60;54.30;;;;;;5066708;28;21004;-50
2022/03/29 12:18:56;;;;;;;27.37;16.53;;;19.60;53.30;;;;;;5067568;28;20478;-50
2022/03/29 12:21:24;;;;;;;24.90;17.10;;;19.40;53.50;;;;;;5065830;28;20604;-50
2022/03/29 12:24:01;;;;;;;41.77;16.47;;;19.50;53.30;;;;;;5068677;28;20477;-51
2022/03/29 12:26:30;;;;;;;24.70;15.97;;;19.40;53.20;;;;;;5069827;28;20466;-50
2022/03/29 12:28:58;;;;;;;55.07;18.00;;;19.50;56.70;;;;;;5066206;28;20478;-50
2022/03/29 12:31:27;;;;;;;27.93;15.97;;;19.50;53.70;;;;;;5066096;28;20477;-50
2022/03/29 12:33:55;;;;;;;23.17;16.37;;;19.60;53.90;;;;;;5065399;28;20478;-50
2022/03/29 12:36:21;;;;;;;19.13;14.00;;;19.80;54.40;;;;;;5068753;28;20544;-52
2022/03/29 12:38:53;;;;;;;20.83;15.13;;;19.90;54.50;;;;;;5067902;28;20477;-51
2022/03/29 12:41:34;;;;;;;22.83;16.60;;;19.80;53.80;;;;;;5056004;28;20837;-50
2022/03/29 12:44:01;;;;;;;26.50;16.40;;;19.70;53.90;;;;;;5067136;28;20492;-50
2022/03/29 12:46:29;;;;;;;28.03;15.97;;;19.70;54.60;;;;;;5049018;28;20522;-50
2022/03/29 12:48:56;;;;;;;22.77;16.23;;;;;;;;;;5064116;28;20953;-50